SA27 CYXU-CYXU
Flight info
| Callsign | SA27 |
|---|---|
| Flight time | N/A |
| Altitude | 11500 |
| Route | APDAX |
| Aircraft | L39/L-V/N |
Departure
| Time | 2026-05-09 01:48 |
|---|---|
| Airport | London International Airport (CYXU) |
Arrival
| Time | N/A |
|---|---|
| Airport | London International Airport (CYXU) |
| Time | Latitude | Longitude | Altitude | Speed | Heading |
|---|---|---|---|---|---|
| 2026-05-09 01:43 | 43.03005 | -81.15524 | 906 ft | 0 kts | 321° |
| 2026-05-09 01:44 | 43.03022 | -81.15540 | 906 ft | 6 kts | 2° |
| 2026-05-09 01:44 | 43.03038 | -81.15514 | 906 ft | 6 kts | 49° |
| 2026-05-09 01:44 | 43.03059 | -81.15483 | 906 ft | 4 kts | 49° |
| 2026-05-09 01:44 | 43.03077 | -81.15459 | 906 ft | 3 kts | 45° |
| 2026-05-09 01:45 | 43.03094 | -81.15434 | 906 ft | 4 kts | 45° |
| 2026-05-09 01:45 | 43.03116 | -81.15405 | 906 ft | 5 kts | 44° |
| 2026-05-09 01:45 | 43.03143 | -81.15369 | 906 ft | 6 kts | 44° |
| 2026-05-09 01:45 | 43.03222 | -81.15258 | 906 ft | 17 kts | 57° |
| 2026-05-09 01:46 | 43.03319 | -81.15228 | 906 ft | 19 kts | 314° |
| 2026-05-09 01:46 | 43.03418 | -81.15348 | 906 ft | 19 kts | 319° |
| 2026-05-09 01:46 | 43.03518 | -81.15469 | 906 ft | 20 kts | 318° |
| 2026-05-09 01:46 | 43.03632 | -81.15606 | 906 ft | 25 kts | 319° |
| 2026-05-09 01:47 | 43.03762 | -81.15762 | 905 ft | 25 kts | 319° |
| 2026-05-09 01:47 | 43.03891 | -81.15919 | 905 ft | 25 kts | 317° |
| 2026-05-09 01:47 | 43.04021 | -81.16013 | 906 ft | 19 kts | 3° |
| 2026-05-09 01:47 | 43.04096 | -81.15998 | 907 ft | 25 kts | 17° |
| 2026-05-09 01:48 | 43.04052 | -81.15791 | 906 ft | 60 kts | 137° |
| 2026-05-09 01:48 | 43.03468 | -81.15076 | 1118 ft | 145 kts | 140° |
| 2026-05-09 01:48 | 43.02734 | -81.14085 | 2566 ft | 161 kts | 128° |
| 2026-05-09 01:48 | 43.02503 | -81.12471 | 3983 ft | 200 kts | 85° |
| 2026-05-09 01:49 | 43.03146 | -81.10611 | 5567 ft | 229 kts | 44° |
| 2026-05-09 01:49 | 43.04319 | -81.09010 | 7360 ft | 259 kts | 43° |
| 2026-05-09 01:49 | 43.05707 | -81.07178 | 7565 ft | 296 kts | 40° |
| 2026-05-09 01:49 | 43.07275 | -81.05208 | 7673 ft | 314 kts | 40° |
| 2026-05-09 01:50 | 43.08904 | -81.03132 | 7819 ft | 328 kts | 41° |
| 2026-05-09 01:50 | 43.10446 | -81.01110 | 9193 ft | 293 kts | 40° |
| 2026-05-09 01:50 | 43.11864 | -80.99216 | 10229 ft | 275 kts | 38° |
| 2026-05-09 01:50 | 43.13508 | -80.99109 | 7393 ft | 293 kts | 340° |
| 2026-05-09 01:51 | 43.15292 | -80.99830 | 6251 ft | 235 kts | 347° |
| 2026-05-09 01:51 | 43.16794 | -80.99570 | 5314 ft | 224 kts | 10° |
| 2026-05-09 01:51 | 43.18360 | -80.99149 | 4836 ft | 230 kts | 8° |
| 2026-05-09 01:51 | 43.19983 | -80.98803 | 4345 ft | 239 kts | 7° |
| 2026-05-09 01:52 | 43.21788 | -80.98499 | 3740 ft | 280 kts | 1° |
| 2026-05-09 01:52 | 43.23617 | -80.98686 | 3124 ft | 251 kts | 345° |
| 2026-05-09 01:52 | 43.25158 | -80.99677 | 2284 ft | 256 kts | 309° |
| 2026-05-09 01:52 | 43.25132 | -81.01771 | 2890 ft | 232 kts | 225° |
| 2026-05-09 01:53 | 43.25185 | -81.03873 | 3221 ft | 257 kts | 296° |
| 2026-05-09 01:53 | 43.25955 | -81.06158 | 3558 ft | 268 kts | 288° |
| 2026-05-09 01:53 | 43.26501 | -81.08571 | 4332 ft | 258 kts | 282° |
| 2026-05-09 01:53 | 43.27960 | -81.09946 | 4288 ft | 295 kts | 356° |
| 2026-05-09 01:54 | 43.29723 | -81.08769 | 5047 ft | 278 kts | 56° |
| 2026-05-09 01:54 | 43.30364 | -81.06394 | 5870 ft | 263 kts | 59° |
| 2026-05-09 01:54 | 43.31497 | -81.04571 | 6469 ft | 235 kts | 47° |
| 2026-05-09 01:54 | 43.32789 | -81.03177 | 5679 ft | 247 kts | 27° |
| 2026-05-09 01:55 | 43.34275 | -81.02046 | 5004 ft | 242 kts | 30° |
| 2026-05-09 01:55 | 43.35666 | -81.00641 | 4121 ft | 256 kts | 41° |
| 2026-05-09 01:55 | 43.36984 | -80.99061 | 3240 ft | 252 kts | 44° |
| 2026-05-09 01:55 | 43.38296 | -80.97499 | 2741 ft | 241 kts | 42° |
| 2026-05-09 01:56 | 43.39475 | -80.96076 | 2654 ft | 213 kts | 44° |
| 2026-05-09 01:56 | 43.40561 | -80.94694 | 2579 ft | 214 kts | 46° |
| 2026-05-09 01:56 | 43.41648 | -80.93298 | 2553 ft | 209 kts | 28° |
| 2026-05-09 01:56 | 43.42655 | -80.93858 | 2652 ft | 151 kts | 279° |
| 2026-05-09 01:57 | 43.42436 | -80.95128 | 2366 ft | 136 kts | 231° |
| 2026-05-09 01:57 | 43.41594 | -80.95924 | 2062 ft | 162 kts | 189° |
| 2026-05-09 01:57 | 43.40630 | -80.95187 | 1699 ft | 186 kts | 101° |
| 2026-05-09 01:57 | 43.41381 | -80.93618 | 1351 ft | 239 kts | 43° |
| 2026-05-09 01:58 | 43.42458 | -80.91951 | 3316 ft | 239 kts | 66° |
| 2026-05-09 01:58 | 43.42620 | -80.89555 | 4920 ft | 260 kts | 98° |
| 2026-05-09 01:58 | 43.42384 | -80.87262 | 7659 ft | 220 kts | 102° |
| 2026-05-09 01:58 | 43.42091 | -80.85210 | 8817 ft | 246 kts | 103° |
| 2026-05-09 01:59 | 43.41697 | -80.82548 | 9338 ft | 312 kts | 103° |
| 2026-05-09 01:59 | 43.41223 | -80.79385 | 10310 ft | 356 kts | 103° |
| 2026-05-09 01:59 | 43.40686 | -80.75794 | 10938 ft | 408 kts | 101° |
| 2026-05-09 01:59 | 43.40557 | -80.71740 | 11604 ft | 441 kts | 86° |
| 2026-05-09 02:00 | 43.40821 | -80.67412 | 11817 ft | 462 kts | 84° |
| 2026-05-09 02:00 | 43.41099 | -80.63125 | 11911 ft | 453 kts | 84° |
| 2026-05-09 02:00 | 43.41152 | -80.58745 | 11817 ft | 450 kts | 91° |
| 2026-05-09 02:00 | 43.41067 | -80.54467 | 11815 ft | 446 kts | 91° |
| 2026-05-09 02:01 | 43.40986 | -80.50266 | 11808 ft | 444 kts | 91° |
| 2026-05-09 02:01 | 43.40904 | -80.46009 | 11801 ft | 455 kts | 91° |
| 2026-05-09 02:01 | 43.40855 | -80.43461 | 11756 ft | 470 kts | 91° |
| 2026-05-09 02:01 | 43.40775 | -80.39248 | 11681 ft | 484 kts | 91° |